Time;durP1;ratioP1;P1;durP2;ratioP2;P2;SDS_P1;SDS_P2;PMS_P1;PMS_P2;Temp;Humidity;BMP_temperature;BMP_pressure;BME280_temperature;BME280_humidity;BME280_pressure;Samples;Min_cycle;Max_cycle;Signal;HPM_P1;HPM_P2
2023/05/13 00:01:14;;;;;;;14.60;13.07;;;15.80;99.90;;;;;;5050660;28;20025;-78
2023/05/13 00:03:40;;;;;;;17.42;13.52;;;15.80;99.90;;;;;;5055485;28;20048;-78
2023/05/13 00:06:06;;;;;;;14.73;13.32;;;15.80;99.90;;;;;;5049322;28;20440;-80
2023/05/13 00:08:31;;;;;;;19.00;13.55;;;15.70;99.90;;;;;;5047241;28;20548;-78
2023/05/13 00:10:57;;;;;;;16.20;14.48;;;15.80;99.90;;;;;;5049019;28;20401;-78
2023/05/13 00:13:23;;;;;;;14.93;13.43;;;15.70;99.90;;;;;;5050574;28;20094;-78
2023/05/13 00:15:49;;;;;;;20.02;15.13;;;15.70;99.90;;;;;;5055338;28;20436;-79
2023/05/13 00:18:16;;;;;;;16.02;14.40;;;15.70;99.90;;;;;;5049948;28;20255;-79
2023/05/13 00:20:42;;;;;;;15.18;13.48;;;15.70;99.90;;;;;;5051425;28;20061;-80
2023/05/13 00:23:08;;;;;;;17.63;14.70;;;15.70;99.90;;;;;;5047872;28;20054;-79
2023/05/13 00:25:34;;;;;;;18.42;14.32;;;15.60;99.90;;;;;;5049864;28;20033;-81
2023/05/13 00:28:00;;;;;;;16.90;14.02;;;15.60;99.90;;;;;;5050999;28;20044;-78
2023/05/13 00:30:26;;;;;;;19.73;16.10;;;15.60;99.90;;;;;;5050255;28;20056;-79
2023/05/13 00:32:52;;;;;;;18.05;14.35;;;15.50;99.90;;;;;;5036387;28;20490;-78
2023/05/13 00:35:18;;;;;;;22.00;15.10;;;15.50;99.90;;;;;;5049445;28;20025;-78
2023/05/13 00:37:43;;;;;;;16.17;14.15;;;15.50;99.90;;;;;;5047003;28;20048;-78
2023/05/13 00:40:19;;;;;;;16.17;14.52;;;15.50;99.90;;;;;;5049565;28;20048;-78
2023/05/13 00:42:45;;;;;;;17.25;15.25;;;15.50;99.90;;;;;;5047808;28;20021;-78
2023/05/13 00:45:11;;;;;;;16.58;14.88;;;15.50;99.90;;;;;;5037222;28;20036;-78
2023/05/13 00:47:38;;;;;;;18.63;16.40;;;15.50;99.90;;;;;;5039259;28;20034;-77
2023/05/13 00:50:05;;;;;;;16.63;14.90;;;15.50;99.90;;;;;;5045821;28;20132;-79
2023/05/13 00:52:31;;;;;;;18.25;15.63;;;15.50;99.90;;;;;;5051709;28;20029;-78
2023/05/13 00:54:58;;;;;;;17.77;15.70;;;15.50;99.90;;;;;;5051622;28;20052;-78
2023/05/13 00:57:24;;;;;;;16.48;14.52;;;15.50;99.90;;;;;;5052361;28;20106;-77
2023/05/13 00:59:50;;;;;;;19.15;15.32;;;15.50;99.90;;;;;;5050362;28;20040;-78
2023/05/13 01:02:47;;;;;;;17.58;15.48;;;15.50;99.90;;;;;;5053621;28;20025;-82
2023/05/13 01:05:30;;;;;;;16.92;15.23;;;15.50;99.90;;;;;;5059402;28;20020;-79
2023/05/13 01:08:16;;;;;;;16.67;14.98;;;15.50;99.90;;;;;;5060513;28;20021;-83
2023/05/13 01:11:00;;;;;;;19.25;16.08;;;15.50;99.90;;;;;;5053865;28;20028;-83
2023/05/13 01:13:31;;;;;;;16.83;14.70;;;15.50;99.90;;;;;;5062902;28;20063;-77
2023/05/13 01:16:00;;;;;;;21.75;15.45;;;15.50;99.90;;;;;;5060680;28;20516;-78
2023/05/13 01:18:48;;;;;;;16.73;14.98;;;15.40;99.90;;;;;;5062640;28;20116;-82
2023/05/13 01:21:14;;;;;;;20.02;16.33;;;15.40;99.90;;;;;;5056922;28;20358;-81
2023/05/13 01:23:40;;;;;;;19.08;15.60;;;15.40;99.90;;;;;;5052519;28;20024;-82
2023/05/13 01:26:05;;;;;;;18.20;15.02;;;15.40;99.90;;;;;;5060451;28;20384;-82
2023/05/13 01:28:31;;;;;;;18.73;14.98;;;15.30;99.90;;;;;;5057219;28;20017;-83
2023/05/13 01:30:57;;;;;;;21.20;16.02;;;15.30;99.90;;;;;;5060614;28;20032;-80
2023/05/13 01:33:23;;;;;;;24.58;15.38;;;15.30;99.90;;;;;;5059105;28;20519;-80
2023/05/13 01:35:50;;;;;;;17.40;14.57;;;15.30;99.90;;;;;;5057901;28;20026;-81
2023/05/13 01:38:17;;;;;;;18.60;16.42;;;15.30;99.90;;;;;;5044854;28;20540;-79
2023/05/13 01:40:43;;;;;;;17.20;15.38;;;15.30;99.90;;;;;;5057556;28;20037;-78
2023/05/13 01:43:09;;;;;;;15.30;13.30;;;15.30;99.90;;;;;;5059439;28;20029;-77
2023/05/13 01:45:35;;;;;;;17.65;15.88;;;15.30;99.90;;;;;;5062376;28;20492;-76
2023/05/13 01:48:00;;;;;;;16.80;14.93;;;15.30;99.90;;;;;;5059529;28;20029;-78
2023/05/13 01:50:26;;;;;;;20.40;15.38;;;15.30;99.90;;;;;;5060086;28;20783;-81
2023/05/13 01:52:52;;;;;;;18.13;14.98;;;15.20;99.90;;;;;;5057944;28;20037;-78
2023/05/13 01:55:18;;;;;;;15.52;14.02;;;15.20;99.90;;;;;;5061480;28;20481;-78
2023/05/13 01:57:43;;;;;;;17.50;14.57;;;15.20;99.90;;;;;;5059342;28;20381;-78
2023/05/13 02:00:10;;;;;;;16.23;14.15;;;15.20;99.90;;;;;;5059981;28;20029;-78
2023/05/13 02:02:35;;;;;;;16.98;15.23;;;15.10;99.90;;;;;;5059574;28;20025;-79
2023/05/13 02:05:01;;;;;;;15.60;13.48;;;15.10;99.90;;;;;;5059917;28;20058;-77
2023/05/13 02:07:27;;;;;;;16.50;14.55;;;15.10;99.90;;;;;;5058123;28;20020;-76
2023/05/13 02:09:58;;;;;;;15.52;13.45;;;15.10;99.90;;;;;;5066323;28;20036;-77
2023/05/13 02:12:25;;;;;;;15.73;14.02;;;15.10;99.90;;;;;;5062004;28;20027;-79
2023/05/13 02:14:52;;;;;;;16.65;14.63;;;15.00;99.90;;;;;;5059862;28;20032;-81
2023/05/13 02:17:18;;;;;;;17.58;15.68;;;14.90;99.90;;;;;;5064706;28;20017;-78
2023/05/13 02:19:43;;;;;;;18.30;15.07;;;14.90;99.90;;;;;;5057857;28;20458;-78
2023/05/13 02:22:09;;;;;;;16.88;13.50;;;14.90;99.90;;;;;;5055464;28;20473;-77
2023/05/13 02:24:38;;;;;;;16.05;14.48;;;14.90;99.90;;;;;;5060889;28;20400;-77
2023/05/13 02:27:07;;;;;;;16.98;14.05;;;14.90;99.90;;;;;;5058060;28;20120;-77
2023/05/13 02:29:33;;;;;;;20.52;15.10;;;14.80;99.90;;;;;;5060975;28;20373;-77
2023/05/13 02:31:59;;;;;;;16.45;14.02;;;14.80;99.90;;;;;;5057595;28;20101;-77
2023/05/13 02:34:25;;;;;;;15.32;13.73;;;14.80;99.90;;;;;;5059058;28;20061;-77
2023/05/13 02:36:51;;;;;;;17.80;16.02;;;14.80;99.90;;;;;;5058540;28;20021;-77
2023/05/13 02:39:17;;;;;;;19.42;14.65;;;14.80;99.90;;;;;;5059532;28;20115;-77
2023/05/13 02:41:43;;;;;;;18.48;14.73;;;14.70;99.90;;;;;;5059942;28;20108;-77
2023/05/13 02:44:09;;;;;;;25.40;15.80;;;14.70;99.90;;;;;;5062014;28;20058;-77
2023/05/13 02:46:35;;;;;;;19.77;14.32;;;14.60;99.90;;;;;;5059447;28;20126;-77
2023/05/13 02:49:01;;;;;;;17.40;15.57;;;14.60;99.90;;;;;;5061088;28;20559;-77
2023/05/13 02:51:27;;;;;;;16.83;15.13;;;14.60;99.90;;;;;;5058713;28;20475;-77
2023/05/13 02:53:52;;;;;;;17.90;16.02;;;14.60;99.90;;;;;;5057275;28;20098;-76
2023/05/13 02:56:18;;;;;;;19.33;15.00;;;14.60;99.90;;;;;;5063582;28;20025;-77
2023/05/13 02:58:44;;;;;;;17.40;14.55;;;14.60;99.90;;;;;;5063703;28;20028;-77
2023/05/13 03:01:10;;;;;;;18.02;14.48;;;14.60;99.90;;;;;;5059936;28;20017;-76
2023/05/13 03:03:35;;;;;;;16.27;14.55;;;14.60;99.90;;;;;;5058354;28;20025;-78
2023/05/13 03:06:01;;;;;;;16.13;14.52;;;14.50;99.90;;;;;;5058205;28;20528;-77
2023/05/13 03:08:27;;;;;;;18.25;14.90;;;14.50;99.90;;;;;;5060691;28;20385;-77
2023/05/13 03:10:53;;;;;;;15.55;13.93;;;14.50;99.90;;;;;;5059826;28;20036;-77
2023/05/13 03:13:18;;;;;;;15.90;14.13;;;14.50;99.90;;;;;;5060744;28;20036;-78
2023/05/13 03:15:44;;;;;;;17.02;15.10;;;14.40;99.90;;;;;;5056885;28;20052;-77
2023/05/13 03:18:10;;;;;;;15.93;14.32;;;14.40;99.90;;;;;;5061112;28;20036;-77
2023/05/13 03:20:36;;;;;;;17.63;14.82;;;14.40;99.90;;;;;;5056076;28;20021;-78
2023/05/13 03:23:01;;;;;;;25.23;14.98;;;14.40;99.90;;;;;;5049137;28;20362;-77
2023/05/13 03:25:27;;;;;;;14.80;12.90;;;14.40;99.90;;;;;;5056966;28;20031;-81
2023/05/13 03:27:54;;;;;;;18.75;14.70;;;14.30;99.90;;;;;;5062307;28;20362;-77
2023/05/13 03:30:19;;;;;;;17.10;14.73;;;14.30;99.90;;;;;;5057527;28;20023;-78
2023/05/13 03:32:45;;;;;;;19.98;14.25;;;14.30;99.90;;;;;;5059239;28;20112;-77
2023/05/13 03:35:11;;;;;;;18.55;16.42;;;14.20;99.90;;;;;;5063065;28;20024;-77
2023/05/13 03:37:36;;;;;;;17.58;15.75;;;14.20;99.90;;;;;;5056990;28;20029;-78
2023/05/13 03:40:03;;;;;;;19.30;16.00;;;14.20;99.90;;;;;;5060874;28;20503;-79
2023/05/13 03:42:29;;;;;;;17.88;15.98;;;14.20;99.90;;;;;;5055561;28;20021;-79
2023/05/13 03:44:56;;;;;;;19.08;15.23;;;14.20;99.90;;;;;;5063235;28;20027;-77
2023/05/13 03:47:22;;;;;;;18.50;15.45;;;14.10;99.90;;;;;;5056697;28;20464;-80
2023/05/13 03:49:48;;;;;;;23.60;17.80;;;14.10;99.90;;;;;;5060160;28;20424;-79
2023/05/13 03:52:15;;;;;;;20.08;16.10;;;14.10;99.90;;;;;;5058995;28;20074;-77
2023/05/13 03:54:41;;;;;;;17.80;15.05;;;14.00;99.90;;;;;;5057756;28;20092;-76
2023/05/13 03:57:07;;;;;;;19.13;16.13;;;14.00;99.90;;;;;;5060239;28;20037;-79
2023/05/13 03:59:33;;;;;;;18.05;15.82;;;14.00;99.90;;;;;;5055780;28;20043;-78
2023/05/13 04:01:59;;;;;;;20.42;15.48;;;14.00;99.90;;;;;;5060389;28;20103;-76
2023/05/13 04:04:24;;;;;;;21.90;17.58;;;14.00;99.90;;;;;;5057034;28;20501;-76
2023/05/13 04:06:50;;;;;;;19.73;16.38;;;13.90;99.90;;;;;;5057515;28;20381;-80
2023/05/13 04:09:16;;;;;;;18.67;16.65;;;13.90;99.90;;;;;;5059674;28;20021;-76
2023/05/13 04:11:41;;;;;;;19.40;16.65;;;13.90;99.90;;;;;;5062125;28;20079;-77
2023/05/13 04:14:07;;;;;;;18.60;15.95;;;13.90;99.90;;;;;;5057976;28;20024;-79
2023/05/13 04:16:33;;;;;;;17.67;15.90;;;13.80;99.90;;;;;;5058008;28;20029;-79
2023/05/13 04:18:58;;;;;;;21.00;15.32;;;13.80;99.90;;;;;;5055195;28;20037;-77
2023/05/13 04:21:24;;;;;;;18.30;16.40;;;13.80;99.90;;;;;;5056218;28;20021;-76
2023/05/13 04:23:50;;;;;;;19.10;16.50;;;13.80;99.90;;;;;;5060987;28;20502;-76
2023/05/13 04:26:15;;;;;;;16.50;14.65;;;13.80;99.90;;;;;;5059100;28;20552;-76
2023/05/13 04:28:41;;;;;;;17.98;15.88;;;13.80;99.90;;;;;;5059062;28;20033;-78
2023/05/13 04:31:07;;;;;;;20.50;15.68;;;13.80;99.90;;;;;;5056818;28;20028;-80
2023/05/13 04:33:33;;;;;;;17.02;15.23;;;13.80;99.90;;;;;;5054032;28;20028;-76
2023/05/13 04:35:58;;;;;;;19.83;15.38;;;13.70;99.90;;;;;;5057132;28;20029;-76
2023/05/13 04:38:24;;;;;;;20.35;16.52;;;13.70;99.90;;;;;;5061046;28;20028;-76
2023/05/13 04:40:51;;;;;;;18.13;15.95;;;13.70;99.90;;;;;;5060292;28;20549;-76
2023/05/13 04:43:16;;;;;;;20.60;15.00;;;13.70;99.90;;;;;;5063684;28;20541;-76
2023/05/13 04:45:42;;;;;;;17.95;14.93;;;13.70;99.90;;;;;;5059598;28;20033;-76
2023/05/13 04:48:08;;;;;;;17.42;15.20;;;13.70;99.90;;;;;;5057978;28;20044;-78
2023/05/13 04:50:33;;;;;;;18.33;16.40;;;13.70;99.90;;;;;;5055801;28;20392;-76
2023/05/13 04:52:59;;;;;;;19.63;15.35;;;13.70;99.90;;;;;;5058872;28;20080;-76
2023/05/13 04:55:25;;;;;;;17.75;15.88;;;13.70;99.90;;;;;;5056063;28;20494;-76
2023/05/13 04:57:51;;;;;;;17.58;15.45;;;13.70;99.90;;;;;;5056645;28;20041;-76
2023/05/13 05:00:16;;;;;;;17.95;16.17;;;13.70;99.90;;;;;;5056954;28;20032;-76
2023/05/13 05:02:42;;;;;;;20.80;17.48;;;13.70;99.90;;;;;;5056825;28;20576;-76
2023/05/13 05:05:08;;;;;;;18.08;15.98;;;13.70;99.90;;;;;;5056094;28;20543;-76
2023/05/13 05:07:34;;;;;;;20.00;16.42;;;13.80;99.90;;;;;;5052619;28;20020;-77
2023/05/13 05:09:59;;;;;;;19.80;16.00;;;13.80;99.90;;;;;;5057496;28;20385;-76
2023/05/13 05:12:25;;;;;;;21.45;17.20;;;13.80;99.90;;;;;;5062265;28;20028;-80
2023/05/13 05:14:51;;;;;;;20.50;17.58;;;13.80;99.90;;;;;;5043892;28;20037;-79
2023/05/13 05:17:16;;;;;;;18.75;16.75;;;13.80;99.90;;;;;;5055531;28;20017;-79
2023/05/13 05:19:42;;;;;;;20.70;17.55;;;13.80;99.90;;;;;;5057327;28;20045;-76
2023/05/13 05:22:08;;;;;;;21.80;19.30;;;13.80;99.90;;;;;;5056544;28;20025;-80
2023/05/13 05:24:33;;;;;;;20.60;18.35;;;13.90;99.90;;;;;;5055352;28;20047;-76
2023/05/13 05:26:59;;;;;;;20.15;18.00;;;13.90;99.90;;;;;;5064074;28;20441;-76
2023/05/13 05:29:25;;;;;;;19.75;17.65;;;13.90;99.90;;;;;;5053239;28;20421;-76
2023/05/13 05:31:51;;;;;;;19.42;17.15;;;14.00;99.90;;;;;;5058537;28;20040;-76
2023/05/13 05:34:16;;;;;;;21.42;18.25;;;14.00;99.90;;;;;;5043324;28;20028;-79
2023/05/13 05:36:43;;;;;;;18.38;16.58;;;14.00;99.90;;;;;;5056300;28;20013;-76
2023/05/13 05:39:09;;;;;;;18.15;16.23;;;14.00;99.90;;;;;;5057481;28;20040;-76
2023/05/13 05:41:35;;;;;;;26.60;19.98;;;14.00;99.90;;;;;;5053095;28;20017;-76
2023/05/13 05:44:01;;;;;;;19.95;17.13;;;14.00;99.90;;;;;;5055308;28;20175;-76
2023/05/13 05:46:27;;;;;;;23.33;17.13;;;14.00;99.90;;;;;;5059242;28;20091;-76
2023/05/13 05:48:52;;;;;;;21.88;16.52;;;14.10;99.90;;;;;;5058962;28;20029;-79
2023/05/13 05:51:18;;;;;;;20.75;17.15;;;14.10;99.90;;;;;;5056387;28;20358;-76
2023/05/13 05:53:44;;;;;;;20.88;16.83;;;14.20;99.90;;;;;;5060942;28;20056;-76
2023/05/13 05:56:09;;;;;;;24.63;16.33;;;14.20;99.90;;;;;;5040827;28;20496;-76
2023/05/13 05:58:35;;;;;;;16.42;14.82;;;14.20;99.90;;;;;;5057216;28;20044;-76
2023/05/13 06:01:01;;;;;;;18.33;16.35;;;14.20;99.90;;;;;;5061180;28;20027;-76
2023/05/13 06:03:27;;;;;;;17.60;15.70;;;14.20;99.90;;;;;;5058195;28;20024;-76
2023/05/13 06:05:53;;;;;;;19.23;15.07;;;14.20;99.90;;;;;;5057547;28;20283;-77
2023/05/13 06:08:19;;;;;;;22.35;16.88;;;14.10;99.90;;;;;;5055220;28;20028;-76
2023/05/13 06:10:45;;;;;;;19.58;17.50;;;14.20;99.90;;;;;;5063745;28;20442;-77
2023/05/13 06:13:11;;;;;;;20.20;16.48;;;14.20;99.90;;;;;;5059862;28;20441;-77
2023/05/13 06:15:39;;;;;;;17.70;15.07;;;14.20;99.90;;;;;;5059598;28;20112;-79
2023/05/13 06:18:05;;;;;;;18.33;16.42;;;14.20;99.90;;;;;;5057039;28;20028;-76
2023/05/13 06:20:31;;;;;;;19.45;16.10;;;14.30;99.90;;;;;;5062983;28;20507;-76
2023/05/13 06:22:57;;;;;;;16.85;13.50;;;14.30;99.90;;;;;;5058905;28;20456;-77
2023/05/13 06:25:23;;;;;;;20.60;15.68;;;14.40;99.90;;;;;;5070195;28;20484;-79
2023/05/13 06:27:49;;;;;;;16.55;14.63;;;14.40;99.90;;;;;;5060812;28;20456;-77
2023/05/13 06:30:15;;;;;;;22.77;16.35;;;14.50;99.90;;;;;;5060477;28;20029;-75
2023/05/13 06:32:41;;;;;;;18.48;14.93;;;14.60;99.90;;;;;;5062350;28;20021;-80
2023/05/13 06:35:07;;;;;;;17.65;15.48;;;14.60;99.90;;;;;;5058088;28;20024;-78
2023/05/13 06:37:32;;;;;;;21.50;15.23;;;14.60;99.90;;;;;;5063142;28;20029;-79
2023/05/13 06:39:59;;;;;;;22.63;15.73;;;14.70;99.90;;;;;;5057262;28;20480;-76
2023/05/13 06:42:24;;;;;;;20.77;14.77;;;14.80;99.90;;;;;;5058595;28;20535;-76
2023/05/13 06:44:50;;;;;;;17.98;14.60;;;14.90;99.90;;;;;;5058494;28;20503;-78
2023/05/13 06:47:16;;;;;;;17.60;15.45;;;15.00;99.90;;;;;;5060783;28;20025;-77
2023/05/13 06:49:42;;;;;;;19.55;15.63;;;15.10;99.90;;;;;;5059084;28;20504;-77
2023/05/13 06:52:09;;;;;;;16.13;14.20;;;15.20;99.90;;;;;;5056526;28;20028;-80
2023/05/13 06:54:34;;;;;;;20.15;15.43;;;15.30;99.90;;;;;;5060357;28;20477;-80
2023/05/13 06:57:00;;;;;;;16.45;14.38;;;15.40;99.90;;;;;;5044615;28;20040;-77
2023/05/13 06:59:26;;;;;;;18.48;15.05;;;15.50;99.90;;;;;;5061851;28;20035;-77
2023/05/13 07:01:52;;;;;;;15.80;14.18;;;15.60;99.90;;;;;;5060096;28;20041;-78
2023/05/13 07:04:17;;;;;;;21.98;14.98;;;15.70;99.90;;;;;;5059012;28;20393;-76
2023/05/13 07:06:43;;;;;;;16.70;14.95;;;15.80;99.90;;;;;;5057200;28;20025;-77
2023/05/13 07:09:09;;;;;;;16.27;14.57;;;15.90;99.90;;;;;;5061983;28;20064;-76
2023/05/13 07:11:35;;;;;;;17.92;15.93;;;16.10;99.90;;;;;;5057432;28;20025;-76
2023/05/13 07:14:01;;;;;;;19.23;14.40;;;16.20;99.90;;;;;;5059894;28;20048;-76
2023/05/13 07:16:27;;;;;;;19.73;15.13;;;16.40;99.90;;;;;;5045557;28;20032;-79
2023/05/13 07:18:53;;;;;;;16.40;13.82;;;16.50;99.90;;;;;;5060785;28;20044;-80
2023/05/13 07:21:19;;;;;;;19.42;14.05;;;16.60;99.90;;;;;;5061483;28;20020;-80
2023/05/13 07:23:45;;;;;;;18.17;14.27;;;16.70;99.90;;;;;;5058222;28;20074;-79
2023/05/13 07:26:11;;;;;;;15.35;12.80;;;16.80;99.90;;;;;;5056805;28;20021;-78
2023/05/13 07:28:36;;;;;;;19.60;13.27;;;16.90;99.90;;;;;;5062132;28;20059;-79
2023/05/13 07:31:06;;;;;;;14.27;12.60;;;17.00;99.90;;;;;;5058859;28;20128;-79
2023/05/13 07:33:32;;;;;;;14.23;12.45;;;17.20;99.90;;;;;;5045121;28;20025;-80
2023/05/13 07:35:57;;;;;;;16.02;13.23;;;17.20;99.90;;;;;;5059432;28;20032;-77
2023/05/13 07:38:23;;;;;;;15.98;14.15;;;17.30;99.90;;;;;;5057279;28;20047;-78
2023/05/13 07:40:48;;;;;;;15.32;13.73;;;17.50;99.90;;;;;;5061314;28;20488;-77
2023/05/13 07:43:22;;;;;;;22.98;12.95;;;17.50;99.90;;;;;;5058836;28;20036;-80
2023/05/13 07:45:49;;;;;;;14.55;12.30;;;17.40;99.90;;;;;;5056598;28;20094;-77
2023/05/13 07:48:16;;;;;;;18.67;12.80;;;17.50;99.90;;;;;;5058956;28;20020;-77
2023/05/13 07:50:46;;;;;;;16.45;12.13;;;17.60;99.90;;;;;;5056627;28;20477;-80
2023/05/13 07:53:12;;;;;;;14.98;13.13;;;17.80;99.90;;;;;;5058693;28;20040;-78
2023/05/13 07:55:38;;;;;;;25.92;13.52;;;17.80;99.90;;;;;;5054882;28;20021;-80
2023/05/13 07:58:03;;;;;;;17.30;13.57;;;17.90;99.90;;;;;;5060172;28;20045;-78
2023/05/13 08:00:29;;;;;;;18.75;13.55;;;17.90;99.90;;;;;;5055425;28;20055;-77
2023/05/13 08:02:55;;;;;;;15.50;13.77;;;18.00;99.90;;;;;;5061553;28;20579;-78
2023/05/13 08:05:21;;;;;;;16.35;13.98;;;18.20;99.90;;;;;;5055927;28;20023;-80
2023/05/13 08:08:06;;;;;;;13.90;12.50;;;18.10;99.90;;;;;;5059973;28;20029;-79
2023/05/13 08:10:35;;;;;;;16.45;13.38;;;18.20;99.90;;;;;;5047842;28;20060;-76
2023/05/13 08:13:01;;;;;;;16.92;14.25;;;18.30;99.90;;;;;;5050485;28;20367;-82
2023/05/13 08:15:27;;;;;;;18.35;14.80;;;18.40;99.90;;;;;;5063957;28;20036;-78
2023/05/13 08:17:53;;;;;;;17.73;13.70;;;18.40;99.90;;;;;;5054305;28;20583;-77
2023/05/13 08:20:20;;;;;;;14.25;12.75;;;18.40;99.90;;;;;;5057707;28;20082;-77
2023/05/13 08:22:46;;;;;;;22.88;15.18;;;18.50;99.90;;;;;;5055703;28;20049;-79
2023/05/13 08:25:14;;;;;;;17.25;13.07;;;18.60;99.90;;;;;;5059101;28;20642;-79
2023/05/13 08:27:39;;;;;;;15.55;13.90;;;18.70;99.90;;;;;;5048147;28;20486;-81
2023/05/13 08:30:06;;;;;;;18.65;13.68;;;18.90;99.90;;;;;;5064378;28;20100;-80
2023/05/13 08:32:32;;;;;;;18.40;14.32;;;19.20;99.90;;;;;;5057885;28;20086;-81
2023/05/13 08:34:58;;;;;;;12.38;11.07;;;19.30;99.90;;;;;;5053224;28;20460;-81
2023/05/13 08:37:23;;;;;;;12.05;10.73;;;19.40;99.90;;;;;;5057401;28;20078;-77
2023/05/13 08:39:49;;;;;;;16.38;10.40;;;19.60;99.90;;;;;;5041422;28;20046;-79
2023/05/13 08:42:20;;;;;;;12.30;10.75;;;19.70;99.90;;;;;;5044105;28;20029;-80
2023/05/13 08:44:47;;;;;;;12.35;10.10;;;19.90;99.90;;;;;;5039797;28;20115;-78
2023/05/13 08:47:29;;;;;;;13.07;10.15;;;20.10;99.90;;;;;;5054789;28;20013;-79
2023/05/13 08:49:55;;;;;;;11.20;10.05;;;20.30;99.90;;;;;;5056064;28;20060;-79
2023/05/13 08:52:21;;;;;;;11.13;9.93;;;20.40;99.90;;;;;;5042273;28;20027;-81
2023/05/13 08:54:48;;;;;;;16.08;10.05;;;20.50;99.90;;;;;;5057859;28;20105;-79
2023/05/13 08:57:15;;;;;;;12.63;10.40;;;20.70;99.90;;;;;;5055065;28;20020;-79
2023/05/13 08:59:40;;;;;;;13.27;11.88;;;20.80;99.90;;;;;;5064819;28;20033;-79
2023/05/13 09:02:08;;;;;;;16.92;11.55;;;21.00;99.90;;;;;;5055924;28;20040;-80
2023/05/13 09:04:36;;;;;;;15.20;9.32;;;21.10;99.90;;;;;;5028277;28;21676;-79
2023/05/13 09:07:04;;;;;;;11.27;10.05;;;21.20;99.90;;;;;;5046502;28;20017;-80
2023/05/13 09:09:30;;;;;;;11.32;9.73;;;21.40;99.90;;;;;;5048554;28;20503;-80
2023/05/13 09:11:55;;;;;;;11.77;8.85;;;21.50;99.90;;;;;;5051994;28;20032;-82
2023/05/13 09:14:30;;;;;;;10.40;8.45;;;21.60;99.90;;;;;;5050430;28;20037;-79
2023/05/13 09:16:56;;;;;;;10.80;9.30;;;21.70;99.90;;;;;;5048566;28;20017;-79
2023/05/13 09:19:24;;;;;;;16.23;9.60;;;21.90;99.90;;;;;;5051138;28;20102;-77
2023/05/13 09:21:51;;;;;;;9.38;8.35;;;22.00;99.90;;;;;;5052198;28;20024;-79
2023/05/13 09:24:22;;;;;;;11.43;7.97;;;22.10;99.90;;;;;;5049165;28;20582;-80
2023/05/13 09:26:50;;;;;;;12.60;8.00;;;22.20;99.90;;;;;;5034373;28;20052;-79
2023/05/13 09:29:20;;;;;;;9.07;7.32;;;22.40;99.90;;;;;;5050661;28;20475;-78
2023/05/13 09:31:49;;;;;;;8.90;7.82;;;22.40;99.90;;;;;;5047794;28;20024;-78
2023/05/13 09:34:27;;;;;;;12.30;6.80;;;22.50;99.90;;;;;;5049456;28;20041;-78
2023/05/13 09:37:04;;;;;;;13.10;8.00;;;22.60;99.90;;;;;;5044074;28;20027;-79
2023/05/13 09:39:33;;;;;;;9.55;7.43;;;22.80;99.90;;;;;;5051611;28;20045;-76
2023/05/13 09:42:02;;;;;;;8.15;6.57;;;22.70;99.90;;;;;;5053217;28;20140;-78
2023/05/13 09:44:29;;;;;;;8.68;6.28;;;22.80;99.90;;;;;;5048094;28;20096;-78
2023/05/13 09:46:55;;;;;;;7.63;5.70;;;23.00;99.90;;;;;;5051789;28;20123;-78
2023/05/13 09:49:30;;;;;;;8.20;6.80;;;23.10;99.90;;;;;;5058930;28;20413;-77
2023/05/13 09:52:08;;;;;;;8.32;6.43;;;23.20;99.90;;;;;;5045074;28;20461;-79
2023/05/13 09:54:35;;;;;;;11.68;6.47;;;23.40;99.90;;;;;;5038197;28;20373;-78
2023/05/13 09:57:02;;;;;;;9.02;6.25;;;23.30;99.90;;;;;;5046798;28;20091;-77
2023/05/13 09:59:53;;;;;;;10.05;5.78;;;23.40;99.90;;;;;;5039202;28;20067;-77
2023/05/13 10:02:20;;;;;;;14.35;7.55;;;23.50;99.90;;;;;;5045378;28;20025;-78
2023/05/13 10:04:46;;;;;;;8.90;7.40;;;23.40;99.90;;;;;;5051411;28;20040;-80
2023/05/13 10:07:36;;;;;;;8.32;7.15;;;23.30;99.90;;;;;;5052145;28;20025;-77
2023/05/13 10:10:03;;;;;;;11.05;7.80;;;23.40;99.90;;;;;;5052992;28;20025;-78
2023/05/13 10:12:31;;;;;;;7.75;6.68;;;23.70;99.90;;;;;;5054026;28;20029;-77
2023/05/13 10:14:58;;;;;;;11.95;8.40;;;23.80;99.90;;;;;;5053401;28;20040;-77
2023/05/13 10:17:25;;;;;;;8.00;6.40;;;23.70;99.90;;;;;;5037253;28;20017;-79
2023/05/13 10:19:53;;;;;;;9.27;6.80;;;23.90;99.90;;;;;;5035639;28;20177;-79
2023/05/13 10:22:30;;;;;;;9.25;6.20;;;23.80;99.90;;;;;;5038670;28;20567;-77
2023/05/13 10:24:58;;;;;;;11.55;5.43;;;24.00;99.90;;;;;;5051204;28;20033;-77
2023/05/13 10:27:28;;;;;;;9.40;5.15;;;24.10;99.90;;;;;;5035688;28;20025;-78
2023/05/13 10:29:56;;;;;;;12.63;6.10;;;24.20;99.90;;;;;;5051835;28;20082;-78
2023/05/13 10:32:25;;;;;;;10.52;6.80;;;24.20;99.90;;;;;;5052204;28;20024;-78
2023/05/13 10:34:59;;;;;;;9.75;6.50;;;24.20;99.90;;;;;;5052372;28;20071;-76
2023/05/13 10:37:36;;;;;;;7.82;6.80;;;24.40;99.90;;;;;;5037731;28;20028;-76
2023/05/13 10:40:03;;;;;;;6.85;5.90;;;24.40;99.90;;;;;;5035803;28;20048;-78
2023/05/13 10:42:41;;;;;;;10.02;6.15;;;24.60;99.90;;;;;;5052529;28;20097;-77
2023/05/13 10:45:08;;;;;;;8.10;5.78;;;24.70;99.90;;;;;;5037340;28;20025;-76
2023/05/13 10:47:36;;;;;;;8.77;5.20;;;24.80;99.90;;;;;;5050604;28;20394;-78
2023/05/13 10:50:06;;;;;;;5.65;5.13;;;24.60;99.90;;;;;;5054165;28;20021;-78
2023/05/13 10:52:45;;;;;;;5.57;5.00;;;24.60;99.90;;;;;;5036714;28;20028;-78
2023/05/13 10:55:17;;;;;;;6.82;5.18;;;24.50;99.90;;;;;;5037754;28;20021;-77
2023/05/13 10:58:04;;;;;;;9.45;4.90;;;24.50;99.90;;;;;;5030055;28;20503;-77
2023/05/13 11:00:31;;;;;;;6.53;6.03;;;24.40;99.90;;;;;;5052524;28;20025;-77
2023/05/13 11:03:07;;;;;;;7.82;5.07;;;24.50;99.90;;;;;;5034315;28;20384;-78
2023/05/13 11:05:33;;;;;;;9.52;4.63;;;24.70;99.90;;;;;;5048494;28;20100;-78
2023/05/13 11:08:00;;;;;;;6.95;5.03;;;24.70;99.90;;;;;;5049713;28;20075;-77
2023/05/13 11:10:30;;;;;;;7.95;4.82;;;24.80;99.90;;;;;;5053012;28;20033;-78
2023/05/13 11:13:07;;;;;;;10.40;5.57;;;24.80;99.90;;;;;;5052858;28;20483;-77
2023/05/13 11:15:51;;;;;;;10.05;5.13;;;24.80;99.90;;;;;;5051214;28;20083;-77
2023/05/13 11:18:17;;;;;;;8.70;4.78;;;24.90;99.90;;;;;;5053835;28;20032;-76
2023/05/13 11:20:51;;;;;;;6.30;4.65;;;25.10;99.90;;;;;;5052320;28;20032;-78
2023/05/13 11:23:21;;;;;;;13.90;5.50;;;25.40;99.90;;;;;;5051766;28;20024;-78
2023/05/13 11:26:11;;;;;;;10.65;4.57;;;25.50;99.90;;;;;;5050703;28;20028;-77
2023/05/13 11:29:03;;;;;;;7.97;5.32;;;25.30;99.90;;;;;;5035633;28;20024;-77
2023/05/13 11:32:02;;;;;;;;;;;25.40;99.90;;;;;;5051293;28;20143;-77
2023/05/13 11:34:28;;;;;;;9.50;4.90;;;25.60;99.90;;;;;;5002408;28;19931;-77
2023/05/13 11:37:02;;;;;;;7.35;4.65;;;25.70;99.90;;;;;;5049778;28;20053;-78
2023/05/13 11:39:28;;;;;;;8.27;4.55;;;25.50;99.90;;;;;;5051966;28;20036;-77
2023/05/13 11:42:00;;;;;;;9.40;4.32;;;25.60;98.30;;;;;;5052370;28;20039;-78
2023/05/13 11:44:26;;;;;;;7.72;4.57;;;25.90;98.30;;;;;;5052337;28;20082;-78
2023/05/13 11:46:54;;;;;;;4.88;4.38;;;25.90;99.00;;;;;;5050569;28;20056;-78
2023/05/13 11:49:39;;;;;;;6.30;4.43;;;25.70;97.30;;;;;;5052388;28;20024;-78
2023/05/13 11:52:16;;;;;;;4.93;3.85;;;25.70;99.90;;;;;;5056448;28;20013;-78
2023/05/13 11:54:43;;;;;;;8.15;3.78;;;25.70;98.20;;;;;;5054444;28;20025;-79
2023/05/13 11:57:21;;;;;;;7.50;4.90;;;25.70;98.60;;;;;;5054521;28;20020;-79
2023/05/13 11:59:51;;;;;;;5.15;4.63;;;25.70;97.10;;;;;;5054348;28;20041;-78
2023/05/13 12:02:26;;;;;;;5.63;4.15;;;25.80;99.30;;;;;;5051975;28;20052;-78
2023/05/13 12:04:53;;;;;;;7.75;4.70;;;25.90;99.90;;;;;;5050868;28;20043;-76
2023/05/13 12:07:25;;;;;;;5.45;4.80;;;26.00;99.90;;;;;;5050214;28;20020;-78
2023/05/13 12:09:52;;;;;;;8.63;5.10;;;26.20;98.00;;;;;;5049389;28;20056;-78
2023/05/13 12:12:19;;;;;;;5.75;4.32;;;25.90;96.90;;;;;;5051791;28;20030;-78
2023/05/13 12:14:51;;;;;;;9.85;4.78;;;26.20;97.40;;;;;;5031517;28;20029;-78
2023/05/13 12:17:19;;;;;;;6.68;5.50;;;26.20;99.90;;;;;;5054059;28;20027;-79
2023/05/13 12:20:14;;;;;;;9.13;4.15;;;26.20;95.80;;;;;;5049033;28;20120;-79
2023/05/13 12:22:43;;;;;;;9.60;4.43;;;26.40;96.50;;;;;;5049870;28;20060;-78
2023/05/13 12:25:30;;;;;;;7.15;4.18;;;26.50;96.70;;;;;;5051227;28;20047;-78
2023/05/13 12:27:57;;;;;;;4.97;4.40;;;26.30;98.10;;;;;;5048648;28;20024;-79
2023/05/13 12:30:23;;;;;;;10.55;4.65;;;26.30;98.70;;;;;;5050391;28;20021;-79
2023/05/13 12:32:49;;;;;;;5.25;4.78;;;26.40;98.40;;;;;;5051387;28;20028;-78
2023/05/13 12:35:15;;;;;;;5.95;4.40;;;26.60;95.30;;;;;;5050689;28;20079;-77